sensor_id;sensor_type;location;lat;lon;timestamp;pressure;altitude;pressure_sealevel;temperature;humidity
64141;BME280;50436;50.618;7.932;2022-10-31T00:00:06;97053.63;;;11.20;100.00
64141;BME280;50436;50.618;7.932;2022-10-31T00:02:59;97045.84;;;11.18;100.00
64141;BME280;50436;50.618;7.932;2022-10-31T00:05:47;97047.72;;;11.18;100.00
64141;BME280;50436;50.618;7.932;2022-10-31T00:08:33;97050.63;;;11.16;100.00
64141;BME280;50436;50.618;7.932;2022-10-31T00:11:20;97047.75;;;11.06;100.00
64141;BME280;50436;50.618;7.932;2022-10-31T00:14:06;97047.88;;;10.99;100.00
64141;BME280;50436;50.618;7.932;2022-10-31T00:16:51;97037.75;;;11.01;100.00
64141;BME280;50436;50.618;7.932;2022-10-31T00:19:37;97043.97;;;10.90;100.00
64141;BME280;50436;50.618;7.932;2022-10-31T00:22:23;97044.03;;;10.95;100.00
64141;BME280;50436;50.618;7.932;2022-10-31T00:25:09;97048.59;;;10.95;100.00
64141;BME280;50436;50.618;7.932;2022-10-31T00:27:55;97035.25;;;10.83;100.00
64141;BME280;50436;50.618;7.932;2022-10-31T00:30:41;97042.22;;;10.72;100.00
64141;BME280;50436;50.618;7.932;2022-10-31T00:33:27;97038.28;;;10.75;100.00
64141;BME280;50436;50.618;7.932;2022-10-31T00:36:15;97034.78;;;10.74;100.00
64141;BME280;50436;50.618;7.932;2022-10-31T00:39:02;97037.31;;;10.81;100.00
64141;BME280;50436;50.618;7.932;2022-10-31T00:41:48;97034.06;;;10.91;100.00
64141;BME280;50436;50.618;7.932;2022-10-31T00:44:34;97028.78;;;10.96;100.00
64141;BME280;50436;50.618;7.932;2022-10-31T00:47:20;97028.91;;;11.01;100.00
64141;BME280;50436;50.618;7.932;2022-10-31T00:50:06;97033.19;;;11.02;100.00
64141;BME280;50436;50.618;7.932;2022-10-31T00:52:53;97024.34;;;11.01;100.00
64141;BME280;50436;50.618;7.932;2022-10-31T00:55:38;97019.69;;;10.97;100.00
64141;BME280;50436;50.618;7.932;2022-10-31T00:58:24;97036.00;;;10.95;100.00
64141;BME280;50436;50.618;7.932;2022-10-31T01:01:10;97032.56;;;10.83;100.00
64141;BME280;50436;50.618;7.932;2022-10-31T01:03:56;97035.25;;;10.83;100.00
64141;BME280;50436;50.618;7.932;2022-10-31T01:06:42;97039.78;;;10.82;100.00
64141;BME280;50436;50.618;7.932;2022-10-31T01:09:28;97047.31;;;10.85;100.00
64141;BME280;50436;50.618;7.932;2022-10-31T01:12:13;97046.03;;;10.88;100.00
64141;BME280;50436;50.618;7.932;2022-10-31T01:14:59;97048.13;;;10.86;100.00
64141;BME280;50436;50.618;7.932;2022-10-31T01:17:46;97045.34;;;10.81;100.00
64141;BME280;50436;50.618;7.932;2022-10-31T01:20:32;97045.50;;;10.74;100.00
64141;BME280;50436;50.618;7.932;2022-10-31T01:23:20;97043.19;;;10.66;100.00
64141;BME280;50436;50.618;7.932;2022-10-31T01:26:13;97037.91;;;10.71;100.00
64141;BME280;50436;50.618;7.932;2022-10-31T01:29:03;97045.50;;;10.74;100.00
64141;BME280;50436;50.618;7.932;2022-10-31T01:31:49;97032.56;;;10.71;100.00
64141;BME280;50436;50.618;7.932;2022-10-31T01:34:35;97043.38;;;10.76;100.00
64141;BME280;50436;50.618;7.932;2022-10-31T01:37:21;97050.00;;;10.74;100.00
64141;BME280;50436;50.618;7.932;2022-10-31T01:40:08;97047.56;;;10.72;100.00
64141;BME280;50436;50.618;7.932;2022-10-31T01:42:54;97054.09;;;10.76;100.00
64141;BME280;50436;50.618;7.932;2022-10-31T01:45:41;97059.91;;;10.73;100.00
64141;BME280;50436;50.618;7.932;2022-10-31T01:48:30;97042.81;;;10.74;100.00
64141;BME280;50436;50.618;7.932;2022-10-31T01:51:17;97035.81;;;10.73;100.00
64141;BME280;50436;50.618;7.932;2022-10-31T01:54:08;97033.81;;;10.80;100.00
64141;BME280;50436;50.618;7.932;2022-10-31T01:56:57;97040.03;;;10.69;100.00
64141;BME280;50436;50.618;7.932;2022-10-31T01:59:47;97023.59;;;10.66;100.00
64141;BME280;50436;50.618;7.932;2022-10-31T02:02:35;97029.06;;;10.71;100.00
64141;BME280;50436;50.618;7.932;2022-10-31T02:05:25;97019.53;;;10.75;100.00
64141;BME280;50436;50.618;7.932;2022-10-31T02:08:20;97018.47;;;10.76;100.00
64141;BME280;50436;50.618;7.932;2022-10-31T02:11:10;97018.94;;;10.73;100.00
64141;BME280;50436;50.618;7.932;2022-10-31T02:13:58;97025.34;;;10.72;100.00
64141;BME280;50436;50.618;7.932;2022-10-31T02:16:45;97026.63;;;10.69;100.00
64141;BME280;50436;50.618;7.932;2022-10-31T02:25:51;97009.06;;;10.62;100.00
64141;BME280;50436;50.618;7.932;2022-10-31T02:34:56;97009.88;;;10.62;100.00
64141;BME280;50436;50.618;7.932;2022-10-31T02:37:57;97012.69;;;10.67;100.00
64141;BME280;50436;50.618;7.932;2022-10-31T02:41:03;97012.06;;;10.77;100.00
64141;BME280;50436;50.618;7.932;2022-10-31T02:44:20;97008.53;;;10.88;100.00
64141;BME280;50436;50.618;7.932;2022-10-31T02:47:17;97009.84;;;10.85;100.00
64141;BME280;50436;50.618;7.932;2022-10-31T02:50:24;97012.53;;;10.85;100.00
64141;BME280;50436;50.618;7.932;2022-10-31T02:53:16;97013.47;;;10.79;100.00
64141;BME280;50436;50.618;7.932;2022-10-31T02:56:11;97008.09;;;10.79;100.00
64141;BME280;50436;50.618;7.932;2022-10-31T02:59:01;96997.31;;;10.74;100.00
64141;BME280;50436;50.618;7.932;2022-10-31T03:07:58;97005.31;;;10.86;100.00
64141;BME280;50436;50.618;7.932;2022-10-31T03:10:54;97000.75;;;10.86;100.00
64141;BME280;50436;50.618;7.932;2022-10-31T03:16:53;97004.69;;;10.96;100.00
64141;BME280;50436;50.618;7.932;2022-10-31T03:19:43;96999.34;;;10.96;100.00
64141;BME280;50436;50.618;7.932;2022-10-31T03:22:33;96997.72;;;10.95;100.00
64141;BME280;50436;50.618;7.932;2022-10-31T03:25:19;96995.59;;;10.97;100.00
64141;BME280;50436;50.618;7.932;2022-10-31T03:28:06;96991.91;;;10.98;100.00
64141;BME280;50436;50.618;7.932;2022-10-31T03:30:53;96993.53;;;10.99;100.00
64141;BME280;50436;50.618;7.932;2022-10-31T03:33:41;96992.91;;;10.97;100.00
64141;BME280;50436;50.618;7.932;2022-10-31T03:36:31;96994.47;;;10.93;100.00
64141;BME280;50436;50.618;7.932;2022-10-31T03:39:20;97001.69;;;10.92;100.00
64141;BME280;50436;50.618;7.932;2022-10-31T03:42:13;96999.72;;;10.87;100.00
64141;BME280;50436;50.618;7.932;2022-10-31T03:45:15;97002.88;;;10.84;100.00
64141;BME280;50436;50.618;7.932;2022-10-31T03:48:03;96996.69;;;10.84;100.00
64141;BME280;50436;50.618;7.932;2022-10-31T03:51:16;96999.84;;;10.81;100.00
64141;BME280;50436;50.618;7.932;2022-10-31T03:54:37;97002.31;;;10.71;100.00
64141;BME280;50436;50.618;7.932;2022-10-31T03:57:40;97001.28;;;10.60;100.00
64141;BME280;50436;50.618;7.932;2022-10-31T04:00:31;97011.75;;;10.50;100.00
64141;BME280;50436;50.618;7.932;2022-10-31T04:03:25;97013.97;;;10.41;100.00
64141;BME280;50436;50.618;7.932;2022-10-31T04:06:15;97008.75;;;10.46;100.00
64141;BME280;50436;50.618;7.932;2022-10-31T04:09:05;97006.75;;;10.42;100.00
64141;BME280;50436;50.618;7.932;2022-10-31T04:11:55;97018.06;;;10.44;100.00
64141;BME280;50436;50.618;7.932;2022-10-31T04:15:12;97011.53;;;10.40;100.00
64141;BME280;50436;50.618;7.932;2022-10-31T04:18:00;97008.41;;;10.43;100.00
64141;BME280;50436;50.618;7.932;2022-10-31T04:20:47;97011.75;;;10.50;100.00
64141;BME280;50436;50.618;7.932;2022-10-31T04:23:36;97007.09;;;10.57;100.00
64141;BME280;50436;50.618;7.932;2022-10-31T04:26:42;97001.88;;;10.62;100.00
64141;BME280;50436;50.618;7.932;2022-10-31T04:29:28;97005.94;;;10.53;100.00
64141;BME280;50436;50.618;7.932;2022-10-31T04:32:15;97004.09;;;10.42;100.00
64141;BME280;50436;50.618;7.932;2022-10-31T04:35:01;97000.63;;;10.29;100.00
64141;BME280;50436;50.618;7.932;2022-10-31T04:37:48;96999.91;;;10.22;100.00
64141;BME280;50436;50.618;7.932;2022-10-31T04:40:34;97006.22;;;10.28;100.00
64141;BME280;50436;50.618;7.932;2022-10-31T04:43:43;97005.50;;;10.32;100.00
64141;BME280;50436;50.618;7.932;2022-10-31T04:46:29;97001.31;;;10.37;100.00
64141;BME280;50436;50.618;7.932;2022-10-31T04:49:16;97003.19;;;10.36;100.00
64141;BME280;50436;50.618;7.932;2022-10-31T04:52:03;96993.16;;;10.31;100.00
64141;BME280;50436;50.618;7.932;2022-10-31T04:54:49;96998.19;;;10.28;100.00
64141;BME280;50436;50.618;7.932;2022-10-31T04:58:13;97004.66;;;10.20;100.00
64141;BME280;50436;50.618;7.932;2022-10-31T05:00:59;96991.75;;;10.17;100.00
64141;BME280;50436;50.618;7.932;2022-10-31T05:03:45;97001.03;;;10.03;100.00
64141;BME280;50436;50.618;7.932;2022-10-31T05:06:33;97000.22;;;9.91;100.00
64141;BME280;50436;50.618;7.932;2022-10-31T05:09:19;96992.44;;;9.89;100.00
64141;BME280;50436;50.618;7.932;2022-10-31T05:12:05;96990.78;;;9.88;100.00
64141;BME280;50436;50.618;7.932;2022-10-31T05:15:09;96980.09;;;9.76;100.00
64141;BME280;50436;50.618;7.932;2022-10-31T05:18:14;96977.75;;;9.80;100.00
64141;BME280;50436;50.618;7.932;2022-10-31T05:21:02;96975.94;;;9.81;100.00
64141;BME280;50436;50.618;7.932;2022-10-31T05:23:56;96971.25;;;9.88;100.00
64141;BME280;50436;50.618;7.932;2022-10-31T05:26:43;96970.81;;;10.02;100.00
64141;BME280;50436;50.618;7.932;2022-10-31T05:29:29;96975.22;;;10.09;100.00
64141;BME280;50436;50.618;7.932;2022-10-31T05:32:20;96977.91;;;10.09;100.00
64141;BME280;50436;50.618;7.932;2022-10-31T05:35:31;96973.03;;;10.05;100.00
64141;BME280;50436;50.618;7.932;2022-10-31T05:38:35;96977.56;;;10.05;100.00
64141;BME280;50436;50.618;7.932;2022-10-31T05:41:30;96981.63;;;9.84;100.00
64141;BME280;50436;50.618;7.932;2022-10-31T05:44:32;96984.25;;;9.72;100.00
64141;BME280;50436;50.618;7.932;2022-10-31T05:47:38;96982.19;;;9.74;100.00
64141;BME280;50436;50.618;7.932;2022-10-31T05:50:48;96980.19;;;9.70;100.00
64141;BME280;50436;50.618;7.932;2022-10-31T05:53:35;96982.72;;;9.65;100.00
64141;BME280;50436;50.618;7.932;2022-10-31T05:56:21;96981.34;;;9.62;100.00
64141;BME280;50436;50.618;7.932;2022-10-31T05:59:08;96976.09;;;9.56;100.00
64141;BME280;50436;50.618;7.932;2022-10-31T06:01:54;96972.63;;;9.55;100.00
64141;BME280;50436;50.618;7.932;2022-10-31T06:05:15;96960.63;;;9.46;100.00
64141;BME280;50436;50.618;7.932;2022-10-31T06:08:02;96957.88;;;9.53;100.00
64141;BME280;50436;50.618;7.932;2022-10-31T06:10:49;96969.72;;;9.57;100.00
64141;BME280;50436;50.618;7.932;2022-10-31T06:13:41;96952.41;;;9.59;100.00
64141;BME280;50436;50.618;7.932;2022-10-31T06:16:35;96948.59;;;9.67;100.00
64141;BME280;50436;50.618;7.932;2022-10-31T06:19:40;96945.59;;;9.75;100.00
64141;BME280;50436;50.618;7.932;2022-10-31T06:22:27;96943.63;;;9.82;100.00
64141;BME280;50436;50.618;7.932;2022-10-31T06:25:14;96932.13;;;9.82;100.00
64141;BME280;50436;50.618;7.932;2022-10-31T06:28:05;96950.22;;;9.80;100.00
64141;BME280;50436;50.618;7.932;2022-10-31T06:31:05;96962.88;;;9.72;100.00
64141;BME280;50436;50.618;7.932;2022-10-31T06:33:51;96963.81;;;9.66;100.00
64141;BME280;50436;50.618;7.932;2022-10-31T06:36:37;96964.72;;;9.60;100.00
64141;BME280;50436;50.618;7.932;2022-10-31T06:39:24;96963.44;;;9.63;100.00
64141;BME280;50436;50.618;7.932;2022-10-31T06:42:10;96966.50;;;9.66;100.00
64141;BME280;50436;50.618;7.932;2022-10-31T06:44:56;96973.25;;;9.81;100.00
64141;BME280;50436;50.618;7.932;2022-10-31T06:48:20;96968.59;;;9.99;100.00
64141;BME280;50436;50.618;7.932;2022-10-31T06:51:35;96967.56;;;10.12;100.00
64141;BME280;50436;50.618;7.932;2022-10-31T06:54:21;96968.59;;;10.11;100.00
64141;BME280;50436;50.618;7.932;2022-10-31T06:57:07;96967.31;;;10.02;100.00
64141;BME280;50436;50.618;7.932;2022-10-31T06:59:53;96977.91;;;9.97;100.00
64141;BME280;50436;50.618;7.932;2022-10-31T07:03:02;96980.34;;;9.87;100.00
64141;BME280;50436;50.618;7.932;2022-10-31T07:05:49;96973.84;;;9.83;100.00
64141;BME280;50436;50.618;7.932;2022-10-31T07:08:35;96973.94;;;9.88;100.00
64141;BME280;50436;50.618;7.932;2022-10-31T07:11:21;96976.88;;;9.98;100.00
64141;BME280;50436;50.618;7.932;2022-10-31T07:14:07;96982.44;;;10.08;100.00
64141;BME280;50436;50.618;7.932;2022-10-31T07:16:53;96974.63;;;10.18;100.00
64141;BME280;50436;50.618;7.932;2022-10-31T07:19:44;96970.63;;;10.27;100.00
64141;BME280;50436;50.618;7.932;2022-10-31T07:22:34;96977.00;;;10.38;100.00
64141;BME280;50436;50.618;7.932;2022-10-31T07:25:20;96979.66;;;10.50;100.00
64141;BME280;50436;50.618;7.932;2022-10-31T07:28:48;96977.16;;;10.72;100.00
64141;BME280;50436;50.618;7.932;2022-10-31T07:31:36;96969.13;;;10.83;100.00
64141;BME280;50436;50.618;7.932;2022-10-31T07:34:28;96972.66;;;11.01;100.00
64141;BME280;50436;50.618;7.932;2022-10-31T07:37:32;96974.09;;;11.20;100.00
64141;BME280;50436;50.618;7.932;2022-10-31T07:40:19;96970.06;;;11.34;100.00
64141;BME280;50436;50.618;7.932;2022-10-31T07:43:05;96969.47;;;11.44;100.00
64141;BME280;50436;50.618;7.932;2022-10-31T07:46:16;96971.00;;;11.57;100.00
64141;BME280;50436;50.618;7.932;2022-10-31T07:49:21;96970.69;;;11.70;100.00
64141;BME280;50436;50.618;7.932;2022-10-31T07:52:26;96973.22;;;11.77;100.00
64141;BME280;50436;50.618;7.932;2022-10-31T07:55:35;96967.72;;;11.83;100.00
64141;BME280;50436;50.618;7.932;2022-10-31T07:58:21;96961.22;;;11.96;100.00
64141;BME280;50436;50.618;7.932;2022-10-31T08:01:07;96962.19;;;12.07;100.00
64141;BME280;50436;50.618;7.932;2022-10-31T08:04:01;96975.09;;;12.26;100.00
64141;BME280;50436;50.618;7.932;2022-10-31T08:07:06;96975.63;;;12.45;100.00
64141;BME280;50436;50.618;7.932;2022-10-31T08:09:55;96974.78;;;12.62;100.00
64141;BME280;50436;50.618;7.932;2022-10-31T08:12:45;96970.34;;;12.72;100.00
64141;BME280;50436;50.618;7.932;2022-10-31T08:15:32;96973.41;;;12.81;100.00
64141;BME280;50436;50.618;7.932;2022-10-31T08:18:19;96968.94;;;12.92;100.00
64141;BME280;50436;50.618;7.932;2022-10-31T08:21:07;96971.41;;;12.93;100.00
64141;BME280;50436;50.618;7.932;2022-10-31T08:23:54;96968.53;;;13.00;100.00
64141;BME280;50436;50.618;7.932;2022-10-31T08:26:43;96974.31;;;13.14;100.00
64141;BME280;50436;50.618;7.932;2022-10-31T08:29:31;96972.94;;;13.33;100.00
64141;BME280;50436;50.618;7.932;2022-10-31T08:32:16;96974.09;;;13.42;100.00
64141;BME280;50436;50.618;7.932;2022-10-31T08:35:11;96971.84;;;13.56;100.00
64141;BME280;50436;50.618;7.932;2022-10-31T08:38:16;96967.59;;;13.65;100.00
64141;BME280;50436;50.618;7.932;2022-10-31T08:41:02;96968.81;;;13.79;100.00
64141;BME280;50436;50.618;7.932;2022-10-31T08:43:48;96957.09;;;13.96;100.00
64141;BME280;50436;50.618;7.932;2022-10-31T08:46:35;96952.91;;;14.10;100.00
64141;BME280;50436;50.618;7.932;2022-10-31T08:49:21;96950.84;;;14.27;100.00
64141;BME280;50436;50.618;7.932;2022-10-31T08:52:07;96956.84;;;14.39;100.00
64141;BME280;50436;50.618;7.932;2022-10-31T08:54:57;96942.34;;;14.40;100.00
64141;BME280;50436;50.618;7.932;2022-10-31T08:58:03;96951.03;;;14.47;100.00
64141;BME280;50436;50.618;7.932;2022-10-31T09:00:59;96946.53;;;14.63;100.00
64141;BME280;50436;50.618;7.932;2022-10-31T09:03:45;96932.56;;;14.76;100.00
64141;BME280;50436;50.618;7.932;2022-10-31T09:06:31;96933.41;;;14.92;100.00
64141;BME280;50436;50.618;7.932;2022-10-31T09:09:19;96942.13;;;15.15;100.00
64141;BME280;50436;50.618;7.932;2022-10-31T09:12:06;96939.72;;;15.28;100.00
64141;BME280;50436;50.618;7.932;2022-10-31T09:15:27;96931.13;;;15.37;100.00
64141;BME280;50436;50.618;7.932;2022-10-31T09:18:49;96942.97;;;15.46;100.00
64141;BME280;50436;50.618;7.932;2022-10-31T09:21:36;96943.25;;;15.54;100.00
64141;BME280;50436;50.618;7.932;2022-10-31T09:24:22;96939.56;;;15.81;100.00
64141;BME280;50436;50.618;7.932;2022-10-31T09:27:08;96931.72;;;16.05;100.00
64141;BME280;50436;50.618;7.932;2022-10-31T09:29:57;96930.00;;;16.39;100.00
64141;BME280;50436;50.618;7.932;2022-10-31T09:32:43;96920.81;;;16.51;100.00
64141;BME280;50436;50.618;7.932;2022-10-31T09:35:29;96923.41;;;16.86;100.00
64141;BME280;50436;50.618;7.932;2022-10-31T09:38:20;96922.38;;;16.62;100.00
64141;BME280;50436;50.618;7.932;2022-10-31T09:50:22;96919.09;;;17.74;100.00
64141;BME280;50436;50.618;7.932;2022-10-31T09:56:27;96911.75;;;18.14;100.00
64141;BME280;50436;50.618;7.932;2022-10-31T09:59:28;96903.38;;;18.34;100.00
64141;BME280;50436;50.618;7.932;2022-10-31T10:02:39;96909.28;;;18.41;100.00
64141;BME280;50436;50.618;7.932;2022-10-31T10:08:20;96910.25;;;18.98;100.00
64141;BME280;50436;50.618;7.932;2022-10-31T10:14:57;96902.00;;;19.46;100.00
64141;BME280;50436;50.618;7.932;2022-10-31T10:17:55;96887.25;;;20.31;98.74
64141;BME280;50436;50.618;7.932;2022-10-31T10:24:09;96891.66;;;20.59;96.98
64141;BME280;50436;50.618;7.932;2022-10-31T10:30:13;96901.59;;;19.53;99.09
64141;BME280;50436;50.618;7.932;2022-10-31T10:33:08;96897.66;;;19.45;100.00
64141;BME280;50436;50.618;7.932;2022-10-31T10:35:59;96897.50;;;19.55;100.00
64141;BME280;50436;50.618;7.932;2022-10-31T10:39:04;96891.19;;;19.79;99.91
64141;BME280;50436;50.618;7.932;2022-10-31T10:41:55;96901.03;;;19.74;99.31
64141;BME280;50436;50.618;7.932;2022-10-31T10:45:14;96893.75;;;19.51;100.00
64141;BME280;50436;50.618;7.932;2022-10-31T10:48:53;96883.59;;;19.94;100.00
64141;BME280;50436;50.618;7.932;2022-10-31T10:55:05;96873.06;;;20.20;98.79
64141;BME280;50436;50.618;7.932;2022-10-31T10:58:00;96876.69;;;20.02;97.10
64141;BME280;50436;50.618;7.932;2022-10-31T11:00:47;96876.16;;;19.67;99.19
64141;BME280;50436;50.618;7.932;2022-10-31T11:03:35;96860.38;;;20.02;100.00
64141;BME280;50436;50.618;7.932;2022-10-31T11:06:24;96864.47;;;20.46;96.54
64141;BME280;50436;50.618;7.932;2022-10-31T11:09:15;96855.22;;;20.47;99.59
64141;BME280;50436;50.618;7.932;2022-10-31T11:12:10;96857.81;;;20.66;95.06
64141;BME280;50436;50.618;7.932;2022-10-31T11:15:06;96845.28;;;21.87;90.25
64141;BME280;50436;50.618;7.932;2022-10-31T11:17:55;96839.91;;;22.04;86.05
64141;BME280;50436;50.618;7.932;2022-10-31T11:20:55;96839.00;;;22.09;86.45
64141;BME280;50436;50.618;7.932;2022-10-31T11:23:41;96830.66;;;22.45;87.82
64141;BME280;50436;50.618;7.932;2022-10-31T11:26:27;96829.72;;;21.87;83.48
64141;BME280;50436;50.618;7.932;2022-10-31T11:29:24;96836.00;;;21.43;88.72
64141;BME280;50436;50.618;7.932;2022-10-31T11:32:24;96822.81;;;21.59;88.68
64141;BME280;50436;50.618;7.932;2022-10-31T11:35:14;96814.41;;;22.00;87.84
64141;BME280;50436;50.618;7.932;2022-10-31T11:38:04;96817.00;;;21.74;87.48
64141;BME280;50436;50.618;7.932;2022-10-31T11:40:58;96818.75;;;20.62;92.17
64141;BME280;50436;50.618;7.932;2022-10-31T11:43:51;96809.06;;;20.69;92.86
64141;BME280;50436;50.618;7.932;2022-10-31T11:47:00;96803.44;;;20.38;94.44
64141;BME280;50436;50.618;7.932;2022-10-31T11:49:48;96810.81;;;20.24;95.80
64141;BME280;50436;50.618;7.932;2022-10-31T11:52:39;96800.84;;;20.19;95.20
64141;BME280;50436;50.618;7.932;2022-10-31T11:55:34;96816.72;;;20.67;95.33
64141;BME280;50436;50.618;7.932;2022-10-31T11:58:23;96798.59;;;20.76;94.02
64141;BME280;50436;50.618;7.932;2022-10-31T12:01:27;96794.94;;;21.84;88.64
64141;BME280;50436;50.618;7.932;2022-10-31T12:04:13;96801.25;;;21.40;91.77
64141;BME280;50436;50.618;7.932;2022-10-31T12:06:59;96790.00;;;20.83;94.79
64141;BME280;50436;50.618;7.932;2022-10-31T12:09:45;96783.31;;;20.25;98.16
64141;BME280;50436;50.618;7.932;2022-10-31T12:15:38;96777.66;;;19.81;100.00
64141;BME280;50436;50.618;7.932;2022-10-31T12:18:53;96773.44;;;19.74;100.00
64141;BME280;50436;50.618;7.932;2022-10-31T12:25:17;96757.97;;;20.02;100.00
64141;BME280;50436;50.618;7.932;2022-10-31T12:37:41;96757.94;;;18.10;100.00
64141;BME280;50436;50.618;7.932;2022-10-31T12:43:45;96744.16;;;18.31;100.00
64141;BME280;50436;50.618;7.932;2022-10-31T12:46:59;96725.59;;;18.00;100.00
64141;BME280;50436;50.618;7.932;2022-10-31T12:56:16;96720.16;;;17.47;100.00
64141;BME280;50436;50.618;7.932;2022-10-31T12:59:31;96729.84;;;17.24;100.00
64141;BME280;50436;50.618;7.932;2022-10-31T13:05:16;96718.97;;;17.59;100.00
64141;BME280;50436;50.618;7.932;2022-10-31T13:08:15;96715.63;;;17.72;100.00
64141;BME280;50436;50.618;7.932;2022-10-31T13:14:23;96701.03;;;17.68;100.00
64141;BME280;50436;50.618;7.932;2022-10-31T13:17:21;96691.00;;;17.44;100.00
64141;BME280;50436;50.618;7.932;2022-10-31T13:20:41;96695.56;;;17.20;100.00
64141;BME280;50436;50.618;7.932;2022-10-31T13:23:33;96691.28;;;17.14;100.00
64141;BME280;50436;50.618;7.932;2022-10-31T13:26:21;96693.00;;;17.05;100.00
64141;BME280;50436;50.618;7.932;2022-10-31T13:29:22;96670.81;;;17.08;100.00
64141;BME280;50436;50.618;7.932;2022-10-31T13:32:11;96665.28;;;17.47;100.00
64141;BME280;50436;50.618;7.932;2022-10-31T13:34:57;96675.09;;;17.38;100.00
64141;BME280;50436;50.618;7.932;2022-10-31T13:37:51;96664.22;;;17.43;100.00
64141;BME280;50436;50.618;7.932;2022-10-31T13:46:43;96656.69;;;17.64;100.00
64141;BME280;50436;50.618;7.932;2022-10-31T13:52:23;96655.59;;;17.41;100.00
64141;BME280;50436;50.618;7.932;2022-10-31T13:55:40;96651.41;;;17.30;100.00
64141;BME280;50436;50.618;7.932;2022-10-31T13:58:28;96651.69;;;17.28;100.00
64141;BME280;50436;50.618;7.932;2022-10-31T14:01:21;96641.56;;;17.39;100.00
64141;BME280;50436;50.618;7.932;2022-10-31T14:04:16;96650.34;;;17.25;100.00
64141;BME280;50436;50.618;7.932;2022-10-31T14:07:09;96646.41;;;16.84;100.00
64141;BME280;50436;50.618;7.932;2022-10-31T14:10:06;96634.19;;;16.91;100.00
64141;BME280;50436;50.618;7.932;2022-10-31T14:13:15;96631.19;;;16.93;100.00
64141;BME280;50436;50.618;7.932;2022-10-31T14:16:20;96618.81;;;16.87;100.00
64141;BME280;50436;50.618;7.932;2022-10-31T14:19:15;96624.81;;;16.84;100.00
64141;BME280;50436;50.618;7.932;2022-10-31T14:22:02;96615.41;;;16.76;100.00
64141;BME280;50436;50.618;7.932;2022-10-31T14:24:48;96614.94;;;16.64;100.00
64141;BME280;50436;50.618;7.932;2022-10-31T14:27:43;96612.56;;;16.57;100.00
64141;BME280;50436;50.618;7.932;2022-10-31T14:30:31;96603.44;;;16.48;100.00
64141;BME280;50436;50.618;7.932;2022-10-31T14:33:19;96609.41;;;16.45;100.00
64141;BME280;50436;50.618;7.932;2022-10-31T14:36:17;96622.66;;;16.41;100.00
64141;BME280;50436;50.618;7.932;2022-10-31T14:45:29;96614.56;;;16.41;100.00
64141;BME280;50436;50.618;7.932;2022-10-31T14:51:24;96623.53;;;16.37;100.00
64141;BME280;50436;50.618;7.932;2022-10-31T14:54:19;96621.66;;;16.32;100.00
64141;BME280;50436;50.618;7.932;2022-10-31T14:57:18;96604.91;;;16.35;100.00
64141;BME280;50436;50.618;7.932;2022-10-31T15:00:17;96602.72;;;16.37;100.00
64141;BME280;50436;50.618;7.932;2022-10-31T15:03:14;96587.00;;;16.44;100.00
64141;BME280;50436;50.618;7.932;2022-10-31T15:06:05;96588.44;;;16.32;100.00
64141;BME280;50436;50.618;7.932;2022-10-31T15:08:55;96582.84;;;16.23;100.00
64141;BME280;50436;50.618;7.932;2022-10-31T15:11:44;96581.03;;;16.13;100.00
64141;BME280;50436;50.618;7.932;2022-10-31T15:14:30;96585.13;;;16.06;100.00
64141;BME280;50436;50.618;7.932;2022-10-31T15:17:16;96581.44;;;15.92;100.00
64141;BME280;50436;50.618;7.932;2022-10-31T15:20:03;96587.41;;;15.88;100.00
64141;BME280;50436;50.618;7.932;2022-10-31T15:22:49;96590.13;;;15.78;100.00
64141;BME280;50436;50.618;7.932;2022-10-31T15:25:36;96586.19;;;15.66;100.00
64141;BME280;50436;50.618;7.932;2022-10-31T15:28:23;96575.13;;;15.62;100.00
64141;BME280;50436;50.618;7.932;2022-10-31T15:31:15;96582.66;;;15.60;100.00
64141;BME280;50436;50.618;7.932;2022-10-31T15:37:19;96584.34;;;15.41;100.00
64141;BME280;50436;50.618;7.932;2022-10-31T15:40:07;96588.97;;;15.30;100.00
64141;BME280;50436;50.618;7.932;2022-10-31T15:43:02;96590.34;;;15.27;100.00
64141;BME280;50436;50.618;7.932;2022-10-31T15:45:48;96594.94;;;15.17;100.00
64141;BME280;50436;50.618;7.932;2022-10-31T15:48:34;96592.25;;;15.17;100.00
64141;BME280;50436;50.618;7.932;2022-10-31T15:51:30;96594.50;;;14.94;100.00
64141;BME280;50436;50.618;7.932;2022-10-31T15:54:16;96579.44;;;14.73;100.00
64141;BME280;50436;50.618;7.932;2022-10-31T15:57:02;96568.69;;;14.58;100.00
64141;BME280;50436;50.618;7.932;2022-10-31T15:59:48;96565.44;;;14.45;100.00
64141;BME280;50436;50.618;7.932;2022-10-31T16:02:35;96560.28;;;14.39;100.00
64141;BME280;50436;50.618;7.932;2022-10-31T16:05:21;96573.75;;;14.23;100.00
64141;BME280;50436;50.618;7.932;2022-10-31T16:08:44;96567.28;;;14.14;100.00
64141;BME280;50436;50.618;7.932;2022-10-31T16:11:36;96557.09;;;14.01;100.00
64141;BME280;50436;50.618;7.932;2022-10-31T16:14:23;96544.41;;;13.97;100.00
64141;BME280;50436;50.618;7.932;2022-10-31T16:17:15;96531.78;;;13.97;100.00
64141;BME280;50436;50.618;7.932;2022-10-31T16:20:04;96528.03;;;13.93;100.00
64141;BME280;50436;50.618;7.932;2022-10-31T16:22:51;96507.81;;;13.90;100.00
64141;BME280;50436;50.618;7.932;2022-10-31T16:25:39;96502.44;;;13.80;100.00
64141;BME280;50436;50.618;7.932;2022-10-31T16:28:26;96497.88;;;13.81;100.00
64141;BME280;50436;50.618;7.932;2022-10-31T16:31:13;96470.44;;;13.74;100.00
64141;BME280;50436;50.618;7.932;2022-10-31T16:36:50;96500.28;;;13.62;100.00
64141;BME280;50436;50.618;7.932;2022-10-31T16:39:36;96490.56;;;13.61;100.00
64141;BME280;50436;50.618;7.932;2022-10-31T16:42:24;96487.09;;;13.60;100.00
64141;BME280;50436;50.618;7.932;2022-10-31T16:45:19;96492.50;;;13.71;100.00
64141;BME280;50436;50.618;7.932;2022-10-31T16:48:13;96475.81;;;13.63;100.00
64141;BME280;50436;50.618;7.932;2022-10-31T16:51:00;96471.50;;;13.68;100.00